sensor_id;sensor_type;location;lat;lon;timestamp;pressure;altitude;pressure_sealevel;temperature
49593;BMP280;35499;51.482;4.264;2023-07-13T00:01:34;101386.78;;;17.06
49593;BMP280;35499;51.482;4.264;2023-07-13T00:04:00;101388.69;;;17.00
49593;BMP280;35499;51.482;4.264;2023-07-13T00:06:25;101389.66;;;16.98
49593;BMP280;35499;51.482;4.264;2023-07-13T00:08:50;101386.28;;;16.94
49593;BMP280;35499;51.482;4.264;2023-07-13T00:11:16;101387.25;;;16.92
49593;BMP280;35499;51.482;4.264;2023-07-13T00:13:42;101378.69;;;16.88
49593;BMP280;35499;51.482;4.264;2023-07-13T00:16:08;101373.63;;;16.84
49593;BMP280;35499;51.482;4.264;2023-07-13T00:18:33;101378.91;;;16.81
49593;BMP280;35499;51.482;4.264;2023-07-13T00:20:58;101375.59;;;16.76
49593;BMP280;35499;51.482;4.264;2023-07-13T00:23:37;101373.94;;;16.74
49593;BMP280;35499;51.482;4.264;2023-07-13T00:26:03;101375.78;;;16.70
49593;BMP280;35499;51.482;4.264;2023-07-13T00:28:28;101385.31;;;16.70
49593;BMP280;35499;51.482;4.264;2023-07-13T00:30:54;101400.13;;;16.66
49593;BMP280;35499;51.482;4.264;2023-07-13T00:33:19;101389.84;;;16.64
49593;BMP280;35499;51.482;4.264;2023-07-13T00:35:44;101398.53;;;16.63
49593;BMP280;35499;51.482;4.264;2023-07-13T00:38:09;101385.59;;;16.61
49593;BMP280;35499;51.482;4.264;2023-07-13T00:40:35;101382.19;;;16.59
49593;BMP280;35499;51.482;4.264;2023-07-13T00:43:00;101384.84;;;16.58
49593;BMP280;35499;51.482;4.264;2023-07-13T00:47:50;101388.38;;;16.54
49593;BMP280;35499;51.482;4.264;2023-07-13T00:50:16;101384.19;;;16.50
49593;BMP280;35499;51.482;4.264;2023-07-13T00:52:44;101390.38;;;16.46
49593;BMP280;35499;51.482;4.264;2023-07-13T00:55:09;101393.06;;;16.43
49593;BMP280;35499;51.482;4.264;2023-07-13T00:57:36;101388.84;;;16.39
49593;BMP280;35499;51.482;4.264;2023-07-13T01:00:02;101394.13;;;16.36
49593;BMP280;35499;51.482;4.264;2023-07-13T01:02:30;101402.00;;;16.33
49593;BMP280;35499;51.482;4.264;2023-07-13T01:04:55;101401.19;;;16.31
49593;BMP280;35499;51.482;4.264;2023-07-13T01:07:21;101404.66;;;16.30
49593;BMP280;35499;51.482;4.264;2023-07-13T01:09:46;101402.09;;;16.29
49593;BMP280;35499;51.482;4.264;2023-07-13T01:12:11;101404.78;;;16.26
49593;BMP280;35499;51.482;4.264;2023-07-13T01:14:36;101407.41;;;16.25
49593;BMP280;35499;51.482;4.264;2023-07-13T01:17:01;101406.56;;;16.24
49593;BMP280;35499;51.482;4.264;2023-07-13T01:21:54;101418.88;;;16.18
49593;BMP280;35499;51.482;4.264;2023-07-13T01:24:20;101418.94;;;16.15
49593;BMP280;35499;51.482;4.264;2023-07-13T01:26:45;101416.34;;;16.15
49593;BMP280;35499;51.482;4.264;2023-07-13T01:29:10;101414.72;;;16.11
49593;BMP280;35499;51.482;4.264;2023-07-13T01:31:35;101409.50;;;16.12
49593;BMP280;35499;51.482;4.264;2023-07-13T01:34:00;101421.66;;;16.11
49593;BMP280;35499;51.482;4.264;2023-07-13T01:36:26;101419.09;;;16.09
49593;BMP280;35499;51.482;4.264;2023-07-13T01:38:51;101424.22;;;16.12
49593;BMP280;35499;51.482;4.264;2023-07-13T01:41:16;101423.31;;;16.13
49593;BMP280;35499;51.482;4.264;2023-07-13T01:43:41;101426.81;;;16.12
49593;BMP280;35499;51.482;4.264;2023-07-13T01:46:07;101413.91;;;16.09
49593;BMP280;35499;51.482;4.264;2023-07-13T01:48:32;101420.00;;;16.08
49593;BMP280;35499;51.482;4.264;2023-07-13T01:50:57;101423.50;;;16.06
49593;BMP280;35499;51.482;4.264;2023-07-13T01:53:22;101427.06;;;16.03
49593;BMP280;35499;51.482;4.264;2023-07-13T01:55:47;101419.31;;;16.02
49593;BMP280;35499;51.482;4.264;2023-07-13T01:58:12;101424.53;;;16.00
49593;BMP280;35499;51.482;4.264;2023-07-13T02:00:38;101416.81;;;15.99
49593;BMP280;35499;51.482;4.264;2023-07-13T02:03:03;101420.28;;;15.98
49593;BMP280;35499;51.482;4.264;2023-07-13T02:05:28;101428.13;;;15.95
49593;BMP280;35499;51.482;4.264;2023-07-13T02:07:53;101424.75;;;15.92
49593;BMP280;35499;51.482;4.264;2023-07-13T02:10:19;101426.44;;;15.93
49593;BMP280;35499;51.482;4.264;2023-07-13T02:12:44;101417.94;;;15.88
49593;BMP280;35499;51.482;4.264;2023-07-13T02:15:09;101429.16;;;15.88
49593;BMP280;35499;51.482;4.264;2023-07-13T02:17:35;101430.91;;;15.88
49593;BMP280;35499;51.482;4.264;2023-07-13T02:20:01;101433.50;;;15.88
49593;BMP280;35499;51.482;4.264;2023-07-13T02:22:26;101436.06;;;15.88
49593;BMP280;35499;51.482;4.264;2023-07-13T02:24:52;101431.69;;;15.90
49593;BMP280;35499;51.482;4.264;2023-07-13T02:27:17;101429.09;;;15.90
49593;BMP280;35499;51.482;4.264;2023-07-13T02:29:42;101427.34;;;15.90
49593;BMP280;35499;51.482;4.264;2023-07-13T02:32:08;101425.66;;;15.89
49593;BMP280;35499;51.482;4.264;2023-07-13T02:34:33;101416.22;;;15.88
49593;BMP280;35499;51.482;4.264;2023-07-13T02:36:59;101419.69;;;15.87
49593;BMP280;35499;51.482;4.264;2023-07-13T02:39:24;101431.78;;;15.87
49593;BMP280;35499;51.482;4.264;2023-07-13T02:41:49;101434.41;;;15.85
49593;BMP280;35499;51.482;4.264;2023-07-13T02:44:14;101440.44;;;15.86
49593;BMP280;35499;51.482;4.264;2023-07-13T02:46:40;101434.34;;;15.88
49593;BMP280;35499;51.482;4.264;2023-07-13T02:49:05;101439.44;;;15.91
49593;BMP280;35499;51.482;4.264;2023-07-13T02:51:30;101428.97;;;15.94
49593;BMP280;35499;51.482;4.264;2023-07-13T02:53:58;101438.47;;;15.96
49593;BMP280;35499;51.482;4.264;2023-07-13T02:56:24;101431.53;;;15.97
49593;BMP280;35499;51.482;4.264;2023-07-13T02:58:50;101427.22;;;15.97
49593;BMP280;35499;51.482;4.264;2023-07-13T03:01:15;101428.09;;;15.96
49593;BMP280;35499;51.482;4.264;2023-07-13T03:03:43;101418.63;;;15.95
49593;BMP280;35499;51.482;4.264;2023-07-13T03:06:09;101426.38;;;15.95
49593;BMP280;35499;51.482;4.264;2023-07-13T03:08:34;101428.13;;;15.95
49593;BMP280;35499;51.482;4.264;2023-07-13T03:11:03;101434.16;;;15.95
49593;BMP280;35499;51.482;4.264;2023-07-13T03:13:30;101434.16;;;15.94
49593;BMP280;35499;51.482;4.264;2023-07-13T03:15:55;101434.22;;;15.93
49593;BMP280;35499;51.482;4.264;2023-07-13T03:18:20;101436.00;;;15.91
49593;BMP280;35499;51.482;4.264;2023-07-13T03:20:45;101430.03;;;15.87
49593;BMP280;35499;51.482;4.264;2023-07-13T03:23:11;101431.88;;;15.84
49593;BMP280;35499;51.482;4.264;2023-07-13T03:25:36;101435.41;;;15.80
49593;BMP280;35499;51.482;4.264;2023-07-13T03:28:01;101431.16;;;15.77
49593;BMP280;35499;51.482;4.264;2023-07-13T03:30:26;101436.38;;;15.76
49593;BMP280;35499;51.482;4.264;2023-07-13T03:32:51;101436.41;;;15.75
49593;BMP280;35499;51.482;4.264;2023-07-13T03:35:17;101438.16;;;15.74
49593;BMP280;35499;51.482;4.264;2023-07-13T03:37:42;101439.00;;;15.75
49593;BMP280;35499;51.482;4.264;2023-07-13T03:40:08;101451.88;;;15.77
49593;BMP280;35499;51.482;4.264;2023-07-13T03:42:34;101444.09;;;15.79
49593;BMP280;35499;51.482;4.264;2023-07-13T03:44:59;101444.88;;;15.81
49593;BMP280;35499;51.482;4.264;2023-07-13T03:47:24;101443.91;;;15.85
49593;BMP280;35499;51.482;4.264;2023-07-13T03:49:49;101443.91;;;15.85
49593;BMP280;35499;51.482;4.264;2023-07-13T03:52:15;101445.59;;;15.87
49593;BMP280;35499;51.482;4.264;2023-07-13T03:54:40;101454.22;;;15.88
49593;BMP280;35499;51.482;4.264;2023-07-13T03:57:05;101461.88;;;15.91
49593;BMP280;35499;51.482;4.264;2023-07-13T03:59:31;101467.06;;;15.91
49593;BMP280;35499;51.482;4.264;2023-07-13T04:01:56;101466.16;;;15.93
49593;BMP280;35499;51.482;4.264;2023-07-13T04:04:21;101467.00;;;15.95
49593;BMP280;35499;51.482;4.264;2023-07-13T04:06:47;101462.66;;;15.95
49593;BMP280;35499;51.482;4.264;2023-07-13T04:09:12;101476.41;;;15.99
49593;BMP280;35499;51.482;4.264;2023-07-13T04:11:37;101475.47;;;16.01
49593;BMP280;35499;51.482;4.264;2023-07-13T04:14:02;101474.47;;;16.05
49593;BMP280;35499;51.482;4.264;2023-07-13T04:16:28;101480.47;;;16.09
49593;BMP280;35499;51.482;4.264;2023-07-13T04:18:53;101480.41;;;16.10
49593;BMP280;35499;51.482;4.264;2023-07-13T04:21:19;101482.06;;;16.12
49593;BMP280;35499;51.482;4.264;2023-07-13T04:23:45;101483.72;;;16.15
49593;BMP280;35499;51.482;4.264;2023-07-13T04:26:10;101490.63;;;16.14
49593;BMP280;35499;51.482;4.264;2023-07-13T04:28:36;101486.31;;;16.15
49593;BMP280;35499;51.482;4.264;2023-07-13T04:31:01;101498.38;;;16.16
49593;BMP280;35499;51.482;4.264;2023-07-13T04:33:27;101496.69;;;16.15
49593;BMP280;35499;51.482;4.264;2023-07-13T04:35:53;101491.50;;;16.15
49593;BMP280;35499;51.482;4.264;2023-07-13T04:38:21;101501.81;;;16.18
49593;BMP280;35499;51.482;4.264;2023-07-13T04:40:46;101503.44;;;16.20
49593;BMP280;35499;51.482;4.264;2023-07-13T04:43:12;101499.84;;;16.26
49593;BMP280;35499;51.482;4.264;2023-07-13T04:45:37;101505.84;;;16.28
49593;BMP280;35499;51.482;4.264;2023-07-13T04:48:02;101501.47;;;16.29
49593;BMP280;35499;51.482;4.264;2023-07-13T04:50:27;101510.91;;;16.32
49593;BMP280;35499;51.482;4.264;2023-07-13T04:52:53;101502.19;;;16.34
49593;BMP280;35499;51.482;4.264;2023-07-13T04:55:18;101509.84;;;16.39
49593;BMP280;35499;51.482;4.264;2023-07-13T04:57:43;101510.63;;;16.42
49593;BMP280;35499;51.482;4.264;2023-07-13T05:00:09;101513.09;;;16.47
49593;BMP280;35499;51.482;4.264;2023-07-13T05:02:34;101513.06;;;16.48
49593;BMP280;35499;51.482;4.264;2023-07-13T05:05:00;101517.28;;;16.52
49593;BMP280;35499;51.482;4.264;2023-07-13T05:07:26;101521.50;;;16.54
49593;BMP280;35499;51.482;4.264;2023-07-13T05:09:52;101516.28;;;16.56
49593;BMP280;35499;51.482;4.264;2023-07-13T05:12:17;101521.38;;;16.59
49593;BMP280;35499;51.482;4.264;2023-07-13T05:14:42;101518.69;;;16.63
49593;BMP280;35499;51.482;4.264;2023-07-13T05:17:08;101523.78;;;16.66
49593;BMP280;35499;51.482;4.264;2023-07-13T05:19:34;101523.75;;;16.67
49593;BMP280;35499;51.482;4.264;2023-07-13T05:21:59;101528.84;;;16.70
49593;BMP280;35499;51.482;4.264;2023-07-13T05:24:25;101526.22;;;16.70
49593;BMP280;35499;51.482;4.264;2023-07-13T05:26:50;101533.03;;;16.74
49593;BMP280;35499;51.482;4.264;2023-07-13T05:29:15;101527.69;;;16.80
49593;BMP280;35499;51.482;4.264;2023-07-13T05:31:40;101527.53;;;16.84
49593;BMP280;35499;51.482;4.264;2023-07-13T05:34:05;101532.59;;;16.89
49593;BMP280;35499;51.482;4.264;2023-07-13T05:36:31;101535.88;;;16.97
49593;BMP280;35499;51.482;4.264;2023-07-13T05:38:56;101536.59;;;17.02
49593;BMP280;35499;51.482;4.264;2023-07-13T05:41:21;101535.66;;;17.04
49593;BMP280;35499;51.482;4.264;2023-07-13T05:43:46;101542.41;;;17.09
49593;BMP280;35499;51.482;4.264;2023-07-13T05:46:11;101548.38;;;17.13
49593;BMP280;35499;51.482;4.264;2023-07-13T05:48:37;101553.38;;;17.19
49593;BMP280;35499;51.482;4.264;2023-07-13T05:51:02;101549.75;;;17.24
49593;BMP280;35499;51.482;4.264;2023-07-13T05:53:27;101556.50;;;17.29
49593;BMP280;35499;51.482;4.264;2023-07-13T05:55:53;101550.28;;;17.35
49593;BMP280;35499;51.482;4.264;2023-07-13T05:58:19;101557.06;;;17.38
49593;BMP280;35499;51.482;4.264;2023-07-13T06:00:45;101560.50;;;17.40
49593;BMP280;35499;51.482;4.264;2023-07-13T06:03:10;101565.69;;;17.40
49593;BMP280;35499;51.482;4.264;2023-07-13T06:05:35;101568.25;;;17.42
49593;BMP280;35499;51.482;4.264;2023-07-13T06:08:01;101567.97;;;17.51
49593;BMP280;35499;51.482;4.264;2023-07-13T06:10:27;101566.44;;;17.71
49593;BMP280;35499;51.482;4.264;2023-07-13T06:12:52;101573.47;;;17.95
49593;BMP280;35499;51.482;4.264;2023-07-13T06:15:17;101561.91;;;18.29
49593;BMP280;35499;51.482;4.264;2023-07-13T06:17:42;101561.88;;;18.54
49593;BMP280;35499;51.482;4.264;2023-07-13T06:20:08;101560.59;;;18.65
49593;BMP280;35499;51.482;4.264;2023-07-13T06:22:34;101568.25;;;18.94
49593;BMP280;35499;51.482;4.264;2023-07-13T06:24:59;101572.69;;;19.36
49593;BMP280;35499;51.482;4.264;2023-07-13T06:27:24;101554.88;;;19.90
49593;BMP280;35499;51.482;4.264;2023-07-13T06:29:49;101556.41;;;20.36
49593;BMP280;35499;51.482;4.264;2023-07-13T06:32:14;101548.69;;;20.72
49593;BMP280;35499;51.482;4.264;2023-07-13T06:34:39;101542.31;;;21.16
49593;BMP280;35499;51.482;4.264;2023-07-13T06:37:05;101551.41;;;21.44
49593;BMP280;35499;51.482;4.264;2023-07-13T06:39:30;101549.97;;;21.73
49593;BMP280;35499;51.482;4.264;2023-07-13T06:41:55;101563.88;;;22.10
49593;BMP280;35499;51.482;4.264;2023-07-13T06:44:20;101547.94;;;22.31
49593;BMP280;35499;51.482;4.264;2023-07-13T06:46:46;101556.31;;;22.37
49593;BMP280;35499;51.482;4.264;2023-07-13T06:49:11;101555.81;;;22.31
49593;BMP280;35499;51.482;4.264;2023-07-13T06:51:36;101569.38;;;22.04
49593;BMP280;35499;51.482;4.264;2023-07-13T06:54:01;101566.22;;;21.80
49593;BMP280;35499;51.482;4.264;2023-07-13T06:56:26;101578.13;;;21.87
49593;BMP280;35499;51.482;4.264;2023-07-13T06:58:51;101572.38;;;21.97
49593;BMP280;35499;51.482;4.264;2023-07-13T07:01:17;101569.03;;;22.11
49593;BMP280;35499;51.482;4.264;2023-07-13T07:03:42;101569.81;;;22.30
49593;BMP280;35499;51.482;4.264;2023-07-13T07:08:35;101561.22;;;22.93
49593;BMP280;35499;51.482;4.264;2023-07-13T07:11:00;101563.41;;;23.16
49593;BMP280;35499;51.482;4.264;2023-07-13T07:13:26;101565.69;;;23.39
49593;BMP280;35499;51.482;4.264;2023-07-13T07:15:53;101561.09;;;23.57
49593;BMP280;35499;51.482;4.264;2023-07-13T07:18:18;101565.03;;;23.66
49593;BMP280;35499;51.482;4.264;2023-07-13T07:20:43;101568.91;;;23.59
49593;BMP280;35499;51.482;4.264;2023-07-13T07:23:09;101572.59;;;23.25
49593;BMP280;35499;51.482;4.264;2023-07-13T07:25:34;101574.69;;;23.02
49593;BMP280;35499;51.482;4.264;2023-07-13T07:28:02;101573.41;;;22.94
49593;BMP280;35499;51.482;4.264;2023-07-13T07:30:27;101584.66;;;22.96
49593;BMP280;35499;51.482;4.264;2023-07-13T07:32:52;101581.50;;;22.89
49593;BMP280;35499;51.482;4.264;2023-07-13T07:35:17;101580.78;;;23.02
49593;BMP280;35499;51.482;4.264;2023-07-13T07:37:43;101586.56;;;23.09
49593;BMP280;35499;51.482;4.264;2023-07-13T07:40:08;101584.13;;;23.06
49593;BMP280;35499;51.482;4.264;2023-07-13T07:42:33;101590.28;;;23.05
49593;BMP280;35499;51.482;4.264;2023-07-13T07:44:58;101587.38;;;22.94
49593;BMP280;35499;51.482;4.264;2023-07-13T07:47:24;101588.53;;;22.89
49593;BMP280;35499;51.482;4.264;2023-07-13T07:49:49;101592.78;;;22.91
49593;BMP280;35499;51.482;4.264;2023-07-13T07:52:14;101588.34;;;22.92
49593;BMP280;35499;51.482;4.264;2023-07-13T07:54:39;101595.81;;;23.15
49593;BMP280;35499;51.482;4.264;2023-07-13T07:57:05;101586.00;;;23.66
49593;BMP280;35499;51.482;4.264;2023-07-13T07:59:30;101591.59;;;24.05
49593;BMP280;35499;51.482;4.264;2023-07-13T08:01:55;101593.63;;;24.44
49593;BMP280;35499;51.482;4.264;2023-07-13T08:04:21;101594.72;;;24.84
49593;BMP280;35499;51.482;4.264;2023-07-13T08:06:46;101583.47;;;25.36
49593;BMP280;35499;51.482;4.264;2023-07-13T08:09:11;101589.72;;;25.88
49593;BMP280;35499;51.482;4.264;2023-07-13T08:11:36;101580.63;;;26.32
49593;BMP280;35499;51.482;4.264;2023-07-13T08:14:01;101575.84;;;26.50
49593;BMP280;35499;51.482;4.264;2023-07-13T08:16:27;101583.38;;;26.68
49593;BMP280;35499;51.482;4.264;2023-07-13T08:18:52;101578.75;;;26.96
49593;BMP280;35499;51.482;4.264;2023-07-13T08:21:17;101579.59;;;27.21
49593;BMP280;35499;51.482;4.264;2023-07-13T08:23:45;101566.34;;;27.57
49593;BMP280;35499;51.482;4.264;2023-07-13T08:26:10;101577.38;;;27.86
49593;BMP280;35499;51.482;4.264;2023-07-13T08:28:35;101583.59;;;27.98
49593;BMP280;35499;51.482;4.264;2023-07-13T08:31:04;101577.19;;;28.12
49593;BMP280;35499;51.482;4.264;2023-07-13T08:33:29;101563.72;;;28.27
49593;BMP280;35499;51.482;4.264;2023-07-13T08:35:55;101578.69;;;28.50
49593;BMP280;35499;51.482;4.264;2023-07-13T08:38:20;101570.50;;;28.42
49593;BMP280;35499;51.482;4.264;2023-07-13T08:40:49;101568.59;;;28.44
49593;BMP280;35499;51.482;4.264;2023-07-13T08:43:15;101573.63;;;28.47
49593;BMP280;35499;51.482;4.264;2023-07-13T08:45:51;101572.25;;;28.64
49593;BMP280;35499;51.482;4.264;2023-07-13T08:48:22;101566.94;;;28.98
49593;BMP280;35499;51.482;4.264;2023-07-13T08:51:34;101567.78;;;29.20
49593;BMP280;35499;51.482;4.264;2023-07-13T08:53:43;101561.56;;;29.31
49593;BMP280;35499;51.482;4.264;2023-07-13T08:56:12;101571.69;;;29.37
49593;BMP280;35499;51.482;4.264;2023-07-13T08:58:41;101570.00;;;29.47
49593;BMP280;35499;51.482;4.264;2023-07-13T09:07:26;101556.63;;;30.11
49593;BMP280;35499;51.482;4.264;2023-07-13T09:10:04;101554.50;;;30.25
49593;BMP280;35499;51.482;4.264;2023-07-13T09:12:43;101551.34;;;30.42
49593;BMP280;35499;51.482;4.264;2023-07-13T09:15:21;101550.78;;;30.58
49593;BMP280;35499;51.482;4.264;2023-07-13T09:17:48;101550.84;;;30.48
49593;BMP280;35499;51.482;4.264;2023-07-13T09:23:23;101548.38;;;30.25
49593;BMP280;35499;51.482;4.264;2023-07-13T09:25:53;101563.38;;;30.46
49593;BMP280;35499;51.482;4.264;2023-07-13T09:28:26;101567.28;;;30.31
49593;BMP280;35499;51.482;4.264;2023-07-13T09:30:55;101579.47;;;29.71
49593;BMP280;35499;51.482;4.264;2023-07-13T09:33:21;101578.13;;;29.12
49593;BMP280;35499;51.482;4.264;2023-07-13T09:35:46;101589.16;;;28.74
49593;BMP280;35499;51.482;4.264;2023-07-13T09:38:13;101584.25;;;28.57
49593;BMP280;35499;51.482;4.264;2023-07-13T09:43:24;101583.25;;;28.25
49593;BMP280;35499;51.482;4.264;2023-07-13T09:45:49;101590.88;;;28.63
49593;BMP280;35499;51.482;4.264;2023-07-13T09:48:15;101590.88;;;29.07
49593;BMP280;35499;51.482;4.264;2023-07-13T09:50:41;101586.63;;;29.49
49593;BMP280;35499;51.482;4.264;2023-07-13T09:53:17;101584.88;;;29.91
49593;BMP280;35499;51.482;4.264;2023-07-13T09:55:43;101586.91;;;30.29
49593;BMP280;35499;51.482;4.264;2023-07-13T10:00:37;101585.50;;;30.75
49593;BMP280;35499;51.482;4.264;2023-07-13T10:03:13;101586.31;;;30.87
49593;BMP280;35499;51.482;4.264;2023-07-13T10:05:41;101587.63;;;30.92
49593;BMP280;35499;51.482;4.264;2023-07-13T10:08:27;101588.69;;;31.09
49593;BMP280;35499;51.482;4.264;2023-07-13T10:10:53;101594.03;;;31.39
49593;BMP280;35499;51.482;4.264;2023-07-13T10:13:27;101588.34;;;31.43
49593;BMP280;35499;51.482;4.264;2023-07-13T10:15:54;101588.41;;;31.62
49593;BMP280;35499;51.482;4.264;2023-07-13T10:18:19;101594.47;;;31.73
49593;BMP280;35499;51.482;4.264;2023-07-13T10:20:45;101596.28;;;31.72
49593;BMP280;35499;51.482;4.264;2023-07-13T10:23:13;101597.00;;;31.83
49593;BMP280;35499;51.482;4.264;2023-07-13T10:25:39;101600.00;;;31.99
49593;BMP280;35499;51.482;4.264;2023-07-13T10:28:14;101584.22;;;32.07
49593;BMP280;35499;51.482;4.264;2023-07-13T10:30:43;101597.41;;;32.17
49593;BMP280;35499;51.482;4.264;2023-07-13T10:33:11;101591.38;;;32.34
49593;BMP280;35499;51.482;4.264;2023-07-13T10:35:37;101598.28;;;32.46
49593;BMP280;35499;51.482;4.264;2023-07-13T10:38:14;101598.69;;;32.60
49593;BMP280;35499;51.482;4.264;2023-07-13T10:43:19;101595.34;;;32.39
49593;BMP280;35499;51.482;4.264;2023-07-13T10:45:45;101597.84;;;32.41
49593;BMP280;35499;51.482;4.264;2023-07-13T10:48:12;101598.66;;;32.32
49593;BMP280;35499;51.482;4.264;2023-07-13T10:50:38;101596.72;;;32.43
49593;BMP280;35499;51.482;4.264;2023-07-13T10:53:22;101614.66;;;32.51
49593;BMP280;35499;51.482;4.264;2023-07-13T10:58:19;101612.41;;;32.37
49593;BMP280;35499;51.482;4.264;2023-07-13T11:00:53;101617.31;;;32.51
49593;BMP280;35499;51.482;4.264;2023-07-13T11:03:22;101613.75;;;32.13
49593;BMP280;35499;51.482;4.264;2023-07-13T11:05:48;101615.44;;;31.76
49593;BMP280;35499;51.482;4.264;2023-07-13T11:08:16;101618.22;;;31.65
49593;BMP280;35499;51.482;4.264;2023-07-13T11:10:52;101625.06;;;31.58
49593;BMP280;35499;51.482;4.264;2023-07-13T11:16:02;101621.38;;;31.50
49593;BMP280;35499;51.482;4.264;2023-07-13T11:18:37;101613.00;;;31.63
49593;BMP280;35499;51.482;4.264;2023-07-13T11:21:12;101619.56;;;31.50
49593;BMP280;35499;51.482;4.264;2023-07-13T11:23:38;101618.16;;;31.07
49593;BMP280;35499;51.482;4.264;2023-07-13T11:26:36;101616.00;;;30.61
49593;BMP280;35499;51.482;4.264;2023-07-13T11:28:52;101630.09;;;30.20
49593;BMP280;35499;51.482;4.264;2023-07-13T11:31:17;101629.34;;;30.29
49593;BMP280;35499;51.482;4.264;2023-07-13T11:33:51;101615.22;;;30.39
49593;BMP280;35499;51.482;4.264;2023-07-13T11:36:18;101624.56;;;30.23
49593;BMP280;35499;51.482;4.264;2023-07-13T11:38:51;101633.03;;;29.74
49593;BMP280;35499;51.482;4.264;2023-07-13T11:41:25;101631.56;;;29.17
49593;BMP280;35499;51.482;4.264;2023-07-13T11:43:55;101645.50;;;28.52
49593;BMP280;35499;51.482;4.264;2023-07-13T11:46:25;101646.97;;;27.98
49593;BMP280;35499;51.482;4.264;2023-07-13T11:48:51;101657.72;;;27.35
49593;BMP280;35499;51.482;4.264;2023-07-13T11:51:23;101687.72;;;26.84
49593;BMP280;35499;51.482;4.264;2023-07-13T11:53:51;101682.22;;;25.96
49593;BMP280;35499;51.482;4.264;2023-07-13T11:56:17;101684.38;;;25.22
49593;BMP280;35499;51.482;4.264;2023-07-13T11:58:42;101690.97;;;24.56
49593;BMP280;35499;51.482;4.264;2023-07-13T12:01:21;101699.72;;;23.96
49593;BMP280;35499;51.482;4.264;2023-07-13T12:03:47;101707.59;;;23.33
49593;BMP280;35499;51.482;4.264;2023-07-13T12:06:26;101706.97;;;22.78
49593;BMP280;35499;51.482;4.264;2023-07-13T12:08:52;101695.19;;;22.36
49593;BMP280;35499;51.482;4.264;2023-07-13T12:11:20;101709.63;;;22.08
49593;BMP280;35499;51.482;4.264;2023-07-13T12:13:47;101698.63;;;22.02
49593;BMP280;35499;51.482;4.264;2023-07-13T12:16:32;101689.53;;;22.08
49593;BMP280;35499;51.482;4.264;2023-07-13T12:18:59;101683.00;;;22.35
49593;BMP280;35499;51.482;4.264;2023-07-13T12:21:37;101683.25;;;22.65
49593;BMP280;35499;51.482;4.264;2023-07-13T12:24:03;101670.59;;;23.06
49593;BMP280;35499;51.482;4.264;2023-07-13T12:26:29;101670.03;;;23.64
49593;BMP280;35499;51.482;4.264;2023-07-13T12:28:55;101675.69;;;24.19
49593;BMP280;35499;51.482;4.264;2023-07-13T12:31:39;101678.78;;;24.70
49593;BMP280;35499;51.482;4.264;2023-07-13T12:34:10;101669.13;;;25.13
49593;BMP280;35499;51.482;4.264;2023-07-13T12:36:37;101666.16;;;25.32
49593;BMP280;35499;51.482;4.264;2023-07-13T12:39:05;101659.03;;;25.34
49593;BMP280;35499;51.482;4.264;2023-07-13T12:41:35;101672.56;;;25.29
49593;BMP280;35499;51.482;4.264;2023-07-13T12:44:00;101666.91;;;25.21
49593;BMP280;35499;51.482;4.264;2023-07-13T12:46:26;101672.19;;;25.06
49593;BMP280;35499;51.482;4.264;2023-07-13T12:48:54;101673.69;;;24.67
49593;BMP280;35499;51.482;4.264;2023-07-13T12:51:22;101684.06;;;24.40
49593;BMP280;35499;51.482;4.264;2023-07-13T12:53:50;101673.13;;;24.17
49593;BMP280;35499;51.482;4.264;2023-07-13T12:56:19;101674.25;;;24.28
49593;BMP280;35499;51.482;4.264;2023-07-13T12:58:46;101674.88;;;24.47
49593;BMP280;35499;51.482;4.264;2023-07-13T13:01:13;101675.06;;;24.59
49593;BMP280;35499;51.482;4.264;2023-07-13T13:03:39;101670.13;;;24.53
49593;BMP280;35499;51.482;4.264;2023-07-13T13:08:40;101675.06;;;24.44
49593;BMP280;35499;51.482;4.264;2023-07-13T13:11:07;101675.22;;;24.41
49593;BMP280;35499;51.482;4.264;2023-07-13T13:13:32;101674.16;;;24.45
49593;BMP280;35499;51.482;4.264;2023-07-13T13:16:02;101678.63;;;24.58
49593;BMP280;35499;51.482;4.264;2023-07-13T13:18:30;101668.38;;;24.82
49593;BMP280;35499;51.482;4.264;2023-07-13T13:20:56;101674.94;;;25.04
49593;BMP280;35499;51.482;4.264;2023-07-13T13:23:21;101672.50;;;25.15
49593;BMP280;35499;51.482;4.264;2023-07-13T13:25:48;101667.66;;;25.23
49593;BMP280;35499;51.482;4.264;2023-07-13T13:28:18;101665.31;;;25.32
49593;BMP280;35499;51.482;4.264;2023-07-13T13:30:44;101661.66;;;25.48
49593;BMP280;35499;51.482;4.264;2023-07-13T13:33:10;101667.56;;;25.79
49593;BMP280;35499;51.482;4.264;2023-07-13T13:35:35;101660.72;;;26.29
49593;BMP280;35499;51.482;4.264;2023-07-13T13:38:01;101650.53;;;26.75
49593;BMP280;35499;51.482;4.264;2023-07-13T13:40:26;101650.00;;;27.08
49593;BMP280;35499;51.482;4.264;2023-07-13T13:42:52;101645.50;;;27.34
49593;BMP280;35499;51.482;4.264;2023-07-13T13:45:19;101652.75;;;27.31
49593;BMP280;35499;51.482;4.264;2023-07-13T13:47:46;101648.34;;;27.19
49593;BMP280;35499;51.482;4.264;2023-07-13T13:50:14;101648.34;;;27.19
49593;BMP280;35499;51.482;4.264;2023-07-13T13:52:40;101640.22;;;27.34
49593;BMP280;35499;51.482;4.264;2023-07-13T13:55:12;101646.72;;;27.53
49593;BMP280;35499;51.482;4.264;2023-07-13T13:57:37;101644.00;;;27.67
49593;BMP280;35499;51.482;4.264;2023-07-13T14:00:04;101650.81;;;27.82
49593;BMP280;35499;51.482;4.264;2023-07-13T14:02:30;101646.16;;;27.85
49593;BMP280;35499;51.482;4.264;2023-07-13T14:04:57;101648.69;;;27.86
49593;BMP280;35499;51.482;4.264;2023-07-13T14:07:23;101642.63;;;27.74
49593;BMP280;35499;51.482;4.264;2023-07-13T14:09:48;101640.50;;;27.66
49593;BMP280;35499;51.482;4.264;2023-07-13T14:12:13;101632.91;;;27.62
49593;BMP280;35499;51.482;4.264;2023-07-13T14:14:39;101646.00;;;27.64
49593;BMP280;35499;51.482;4.264;2023-07-13T14:17:04;101648.81;;;27.61
49593;BMP280;35499;51.482;4.264;2023-07-13T14:19:29;101646.59;;;27.55
49593;BMP280;35499;51.482;4.264;2023-07-13T14:21:55;101642.63;;;27.49
49593;BMP280;35499;51.482;4.264;2023-07-13T14:24:20;101638.16;;;27.50
49593;BMP280;35499;51.482;4.264;2023-07-13T14:26:46;101640.09;;;27.48